Sy Anulo — DD6023 — position and weather

sailwx.info

Track history (hours):
 
Tides and Currents Weather Stations Pressure Air Temp Water Temp Dewpoint Dewpoint Depression Visibility Wind Speed Wind Dir Waves Ship Positions

Sy Anulo

Last reported at 2017-Oct-01 12:51 UTC. Time now 2017-Oct-16 22:37 UTC.
Position N 37°04' W 008°16'.
Warning: this ship's position is 15 days out of date.

Length 12 m.

Type: Sailing vessel. MMSI: 211476150.

Date/timePositionNaut miles runAvg speedWind from/ knotsBaromVisibWave heightAir tempDewpointWater temp
2017-Oct-01 12:51N 37°04' W 008°16'2 5.5
2017-Oct-01 12:30N 37°04' W 008°18'2 4.5
2017-Oct-01 12:00N 37°04' W 008°21'3 5.5
2017-Oct-01 11:29N 37°04' W 008°25'3 5.4
2017-Oct-01 11:00N 37°05' W 008°28'3 5.4
2017-Oct-01 10:30N 37°05' W 008°31'2 4.1
2017-Oct-01 10:00N 37°05' W 008°34'3 5.6
2017-Oct-01 09:30N 37°06' W 008°37'3 5.0
2017-Oct-01 09:00N 37°06' W 008°40'0 0.0
2017-Sep-29 18:56N 37°07' W 008°40'0 0.0
2017-Sep-29 12:35N 37°07' W 008°41'0 1.7
2017-Sep-29 12:28N 37°06' W 008°40'0 0.0
2017-Sep-29 12:00N 37°06' W 008°40'2 3.8
2017-Sep-29 11:30N 37°05' W 008°41'3 5.4
2017-Sep-29 11:00N 37°03' W 008°44'2 4.8
2017-Sep-29 10:30N 37°02' W 008°46'1 2.7
2017-Sep-29 10:00N 37°02' W 008°48'2 3.3
2017-Sep-29 09:29N 37°01' W 008°50'42 1.6
2017-Sep-28 07:51N 37°43' W 008°54'2 7.3
2017-Sep-28 07:30N 37°46' W 008°54'4 7.4
2017-Sep-28 07:00N 37°49' W 008°53'4 7.4
2017-Sep-28 06:30N 37°53' W 008°53'4 7.1
2017-Sep-28 06:00N 37°56' W 008°52'1 0.1
2017-Sep-27 19:15N 37°57' W 008°52'0 0.0
2017-Sep-27 19:00N 37°57' W 008°52'0 0.0
2017-Sep-27 18:30N 37°57' W 008°52'0 0.0
2017-Sep-27 17:57N 37°57' W 008°52'0 0.0
2017-Sep-27 17:30N 37°57' W 008°52'0 0.0
2017-Sep-27 16:57N 37°57' W 008°52'0 0.0
2017-Sep-27 15:34N 37°57' W 008°52'0 0.1
2017-Sep-27 15:28N 37°57' W 008°52'0 0.0
2017-Sep-27 14:58N 37°57' W 008°52'0 0.0
2017-Sep-27 14:28N 37°57' W 008°52'0 0.0
2017-Sep-27 13:55N 37°57' W 008°52'0 0.0
2017-Sep-27 13:28N 37°57' W 008°52'0 0.0
2017-Sep-27 12:58N 37°57' W 008°52'0 0.0
2017-Sep-27 12:28N 37°57' W 008°52'0 0.0
2017-Sep-27 11:58N 37°57' W 008°52'0 0.0
2017-Sep-27 11:28N 37°57' W 008°52'0 0.0
2017-Sep-27 10:58N 37°57' W 008°52'0 0.0
2017-Sep-27 10:28N 37°57' W 008°52'0 0.0
2017-Sep-27 09:58N 37°57' W 008°52'0 0.0
2017-Sep-27 09:28N 37°57' W 008°52'0 0.0
2017-Sep-27 08:58N 37°57' W 008°52'0 0.0
2017-Sep-27 08:28N 37°57' W 008°52'0 0.0
2017-Sep-27 07:58N 37°57' W 008°52'0 0.0
2017-Sep-27 07:28N 37°57' W 008°52'0 0.0
2017-Sep-27 06:58N 37°57' W 008°52'0 0.0
2017-Sep-27 06:25N 37°57' W 008°52'0 0.0
2017-Sep-27 05:58N 37°57' W 008°52'0 0.0
2017-Sep-27 05:28N 37°57' W 008°52'0 0.0
2017-Sep-27 04:58N 37°57' W 008°52'0 0.0
2017-Sep-27 04:28N 37°57' W 008°52'0 0.0
2017-Sep-27 03:58N 37°57' W 008°52'0 0.0
2017-Sep-27 03:28N 37°57' W 008°52'0 0.0
2017-Sep-27 02:58N 37°57' W 008°52'0 0.0
2017-Sep-27 02:28N 37°57' W 008°52'0 0.0
2017-Sep-27 01:58N 37°57' W 008°52'0 0.0
2017-Sep-27 01:28N 37°57' W 008°52'0 0.0
2017-Sep-27 00:58N 37°57' W 008°52'0 0.0
2017-Sep-27 00:28N 37°57' W 008°52'0 0.0
2017-Sep-26 23:58N 37°57' W 008°52'0 0.0
2017-Sep-26 23:28N 37°57' W 008°52'0 0.0
2017-Sep-26 22:58N 37°57' W 008°52'0 0.0
2017-Sep-26 22:28N 37°57' W 008°52'0 0.0
2017-Sep-26 21:58N 37°57' W 008°52'0 0.0
2017-Sep-26 21:28N 37°57' W 008°52'0 0.0
2017-Sep-26 20:58N 37°57' W 008°52'0 0.0
2017-Sep-26 20:28N 37°57' W 008°52'0 0.0
2017-Sep-26 19:58N 37°57' W 008°52'0 0.0
2017-Sep-26 19:28N 37°57' W 008°52'0 0.0
2017-Sep-26 18:58N 37°57' W 008°52'0 0.0
2017-Sep-26 18:28N 37°57' W 008°52'0 0.0
2017-Sep-26 17:58N 37°57' W 008°52'0 0.0
2017-Sep-26 17:28N 37°57' W 008°52'0 0.0
2017-Sep-26 16:58N 37°57' W 008°52'0 0.0
2017-Sep-26 16:28N 37°57' W 008°52'0 0.0
2017-Sep-26 15:58N 37°57' W 008°52'0 0.0
2017-Sep-26 15:28N 37°57' W 008°52'0 0.0
2017-Sep-26 15:00N 37°57' W 008°52'2 3.5
2017-Sep-26 14:30N 37°56' W 008°54'2 4.2
2017-Sep-26 14:00N 37°58' W 008°55'3 5.2
2017-Sep-26 13:30N 38°01' W 008°56'2 4.0
2017-Sep-26 13:00N 38°03' W 008°57'3 6.8
2017-Sep-26 12:30N 38°06' W 008°58'4 7.1
2017-Sep-26 12:00N 38°09' W 008°60'3 6.8
2017-Sep-26 11:30N 38°13' W 009°01'3 7.0
2017-Sep-26 11:00N 38°16' W 009°02'4 7.0
2017-Sep-26 10:30N 38°19' W 009°03'4 6.9
2017-Sep-26 10:00N 38°23' W 009°05'4 6.8
2017-Sep-26 09:28N 38°26' W 009°06'0 0.6
2017-Sep-26 08:49N 38°26' W 009°07'0 0.0
2017-Sep-26 08:25N 38°26' W 009°07'0 0.0
2017-Sep-26 07:55N 38°26' W 009°07'0 0.0
2017-Sep-26 00:31N 38°26' W 009°07'0 0.0
2017-Sep-26 00:16N 38°26' W 009°07'0 0.0
2017-Sep-25 23:49N 38°26' W 009°07'0 0.0
2017-Sep-25 23:25N 38°26' W 009°07'0 0.0
2017-Sep-25 22:58N 38°26' W 009°07'0 0.0
2017-Sep-25 22:25N 38°26' W 009°07'0 0.0
2017-Sep-25 21:55N 38°26' W 009°07'0 0.0
2017-Sep-25 21:25N 38°26' W 009°07'0 0.0
2017-Sep-25 20:55N 38°26' W 009°07'0 0.0
2017-Sep-25 20:28N 38°26' W 009°07'0 0.0
2017-Sep-25 19:58N 38°26' W 009°07'0 0.0
2017-Sep-25 19:25N 38°26' W 009°07'0 0.0
2017-Sep-25 18:55N 38°26' W 009°07'0 0.0
2017-Sep-25 18:25N 38°26' W 009°07'0 0.0
2017-Sep-25 17:58N 38°26' W 009°07'0 0.0
2017-Sep-25 17:28N 38°26' W 009°07'0 0.0
2017-Sep-25 16:55N 38°26' W 009°07'0 0.0
2017-Sep-25 16:16N 38°26' W 009°07'0 0.0
2017-Sep-25 15:55N 38°26' W 009°07'0 0.0
2017-Sep-25 15:28N 38°26' W 009°07'0 0.1
2017-Sep-25 14:53N 38°26' W 009°07'1 1.8
2017-Sep-25 14:29N 38°25' W 009°07'2 4.0
2017-Sep-25 13:58N 38°24' W 009°09'2 5.0
2017-Sep-25 13:30N 38°23' W 009°12'2 4.4
2017-Sep-25 13:00N 38°24' W 009°15'3 5.8
2017-Sep-25 12:28N 38°27' W 009°16'3 6.8
2017-Sep-25 11:59N 38°30' W 009°18'3 6.6
2017-Sep-25 11:30N 38°33' W 009°20'3 6.8
2017-Sep-25 11:00N 38°36' W 009°22'2 3.9
2017-Sep-25 10:30N 38°38' W 009°23'2 4.3
2017-Sep-25 10:00N 38°40' W 009°24'2 3.3
2017-Sep-25 09:26N 38°42' W 009°25'0 0.0
2017-Sep-24 19:24N 38°41' W 009°25'0 0.0
2017-Sep-24 19:00N 38°41' W 009°25'  
Track history (hours):
 
Tides and Currents Weather Stations Pressure Air Temp Water Temp Dewpoint Dewpoint Depression Visibility Wind Speed Wind Dir Waves Ship Positions

Sy Anulo

Last reported at 2017-Oct-01 12:51 UTC. Time now 2017-Oct-16 22:37 UTC.
Position N 37°04' W 008°16'.
Warning: this ship's position is 15 days out of date.

Length 12 m.

Type: Sailing vessel. MMSI: 211476150.

Date/timePositionNaut miles runAvg speedWind from/ knotsBaromVisibWave heightAir tempDewpointWater temp
2017-Oct-01 12:51N 37°04' W 008°16'2 5.5
2017-Oct-01 12:30N 37°04' W 008°18'2 4.5
2017-Oct-01 12:00N 37°04' W 008°21'3 5.5
2017-Oct-01 11:29N 37°04' W 008°25'3 5.4
2017-Oct-01 11:00N 37°05' W 008°28'3 5.4
2017-Oct-01 10:30N 37°05' W 008°31'2 4.1
2017-Oct-01 10:00N 37°05' W 008°34'3 5.6
2017-Oct-01 09:30N 37°06' W 008°37'3 5.0
2017-Oct-01 09:00N 37°06' W 008°40'0 0.0
2017-Sep-29 18:56N 37°07' W 008°40'0 0.0
2017-Sep-29 12:35N 37°07' W 008°41'0 1.7
2017-Sep-29 12:28N 37°06' W 008°40'0 0.0
2017-Sep-29 12:00N 37°06' W 008°40'2 3.8
2017-Sep-29 11:30N 37°05' W 008°41'3 5.4
2017-Sep-29 11:00N 37°03' W 008°44'2 4.8
2017-Sep-29 10:30N 37°02' W 008°46'1 2.7
2017-Sep-29 10:00N 37°02' W 008°48'2 3.3
2017-Sep-29 09:29N 37°01' W 008°50'42 1.6
2017-Sep-28 07:51N 37°43' W 008°54'2 7.3
2017-Sep-28 07:30N 37°46' W 008°54'4 7.4
2017-Sep-28 07:00N 37°49' W 008°53'4 7.4
2017-Sep-28 06:30N 37°53' W 008°53'4 7.1
2017-Sep-28 06:00N 37°56' W 008°52'1 0.1
2017-Sep-27 19:15N 37°57' W 008°52'0 0.0
2017-Sep-27 19:00N 37°57' W 008°52'0 0.0
2017-Sep-27 18:30N 37°57' W 008°52'0 0.0
2017-Sep-27 17:57N 37°57' W 008°52'0 0.0
2017-Sep-27 17:30N 37°57' W 008°52'0 0.0
2017-Sep-27 16:57N 37°57' W 008°52'0 0.0
2017-Sep-27 15:34N 37°57' W 008°52'0 0.1
2017-Sep-27 15:28N 37°57' W 008°52'0 0.0
2017-Sep-27 14:58N 37°57' W 008°52'0 0.0
2017-Sep-27 14:28N 37°57' W 008°52'0 0.0
2017-Sep-27 13:55N 37°57' W 008°52'0 0.0
2017-Sep-27 13:28N 37°57' W 008°52'0 0.0
2017-Sep-27 12:58N 37°57' W 008°52'0 0.0
2017-Sep-27 12:28N 37°57' W 008°52'0 0.0
2017-Sep-27 11:58N 37°57' W 008°52'0 0.0
2017-Sep-27 11:28N 37°57' W 008°52'0 0.0
2017-Sep-27 10:58N 37°57' W 008°52'0 0.0
2017-Sep-27 10:28N 37°57' W 008°52'0 0.0
2017-Sep-27 09:58N 37°57' W 008°52'0 0.0
2017-Sep-27 09:28N 37°57' W 008°52'0 0.0
2017-Sep-27 08:58N 37°57' W 008°52'0 0.0
2017-Sep-27 08:28N 37°57' W 008°52'0 0.0
2017-Sep-27 07:58N 37°57' W 008°52'0 0.0
2017-Sep-27 07:28N 37°57' W 008°52'0 0.0
2017-Sep-27 06:58N 37°57' W 008°52'0 0.0
2017-Sep-27 06:25N 37°57' W 008°52'0 0.0
2017-Sep-27 05:58N 37°57' W 008°52'0 0.0
2017-Sep-27 05:28N 37°57' W 008°52'0 0.0
2017-Sep-27 04:58N 37°57' W 008°52'0 0.0
2017-Sep-27 04:28N 37°57' W 008°52'0 0.0
2017-Sep-27 03:58N 37°57' W 008°52'0 0.0
2017-Sep-27 03:28N 37°57' W 008°52'0 0.0
2017-Sep-27 02:58N 37°57' W 008°52'0 0.0
2017-Sep-27 02:28N 37°57' W 008°52'0 0.0
2017-Sep-27 01:58N 37°57' W 008°52'0 0.0
2017-Sep-27 01:28N 37°57' W 008°52'0 0.0
2017-Sep-27 00:58N 37°57' W 008°52'0 0.0
2017-Sep-27 00:28N 37°57' W 008°52'0 0.0
2017-Sep-26 23:58N 37°57' W 008°52'0 0.0
2017-Sep-26 23:28N 37°57' W 008°52'0 0.0
2017-Sep-26 22:58N 37°57' W 008°52'0 0.0
2017-Sep-26 22:28N 37°57' W 008°52'0 0.0
2017-Sep-26 21:58N 37°57' W 008°52'0 0.0
2017-Sep-26 21:28N 37°57' W 008°52'0 0.0
2017-Sep-26 20:58N 37°57' W 008°52'0 0.0
2017-Sep-26 20:28N 37°57' W 008°52'0 0.0
2017-Sep-26 19:58N 37°57' W 008°52'0 0.0
2017-Sep-26 19:28N 37°57' W 008°52'0 0.0
2017-Sep-26 18:58N 37°57' W 008°52'0 0.0
2017-Sep-26 18:28N 37°57' W 008°52'0 0.0
2017-Sep-26 17:58N 37°57' W 008°52'0 0.0
2017-Sep-26 17:28N 37°57' W 008°52'0 0.0
2017-Sep-26 16:58N 37°57' W 008°52'0 0.0
2017-Sep-26 16:28N 37°57' W 008°52'0 0.0
2017-Sep-26 15:58N 37°57' W 008°52'0 0.0
2017-Sep-26 15:28N 37°57' W 008°52'0 0.0
2017-Sep-26 15:00N 37°57' W 008°52'2 3.5
2017-Sep-26 14:30N 37°56' W 008°54'2 4.2
2017-Sep-26 14:00N 37°58' W 008°55'3 5.2
2017-Sep-26 13:30N 38°01' W 008°56'2 4.0
2017-Sep-26 13:00N 38°03' W 008°57'3 6.8
2017-Sep-26 12:30N 38°06' W 008°58'4 7.1
2017-Sep-26 12:00N 38°09' W 008°60'3 6.8
2017-Sep-26 11:30N 38°13' W 009°01'3 7.0
2017-Sep-26 11:00N 38°16' W 009°02'4 7.0
2017-Sep-26 10:30N 38°19' W 009°03'4 6.9
2017-Sep-26 10:00N 38°23' W 009°05'4 6.8
2017-Sep-26 09:28N 38°26' W 009°06'0 0.6
2017-Sep-26 08:49N 38°26' W 009°07'0 0.0
2017-Sep-26 08:25N 38°26' W 009°07'0 0.0
2017-Sep-26 07:55N 38°26' W 009°07'0 0.0
2017-Sep-26 00:31N 38°26' W 009°07'0 0.0
2017-Sep-26 00:16N 38°26' W 009°07'0 0.0
2017-Sep-25 23:49N 38°26' W 009°07'0 0.0
2017-Sep-25 23:25N 38°26' W 009°07'0 0.0
2017-Sep-25 22:58N 38°26' W 009°07'0 0.0
2017-Sep-25 22:25N 38°26' W 009°07'0 0.0
2017-Sep-25 21:55N 38°26' W 009°07'0 0.0
2017-Sep-25 21:25N 38°26' W 009°07'0 0.0
2017-Sep-25 20:55N 38°26' W 009°07'0 0.0
2017-Sep-25 20:28N 38°26' W 009°07'0 0.0
2017-Sep-25 19:58N 38°26' W 009°07'0 0.0
2017-Sep-25 19:25N 38°26' W 009°07'0 0.0
2017-Sep-25 18:55N 38°26' W 009°07'0 0.0
2017-Sep-25 18:25N 38°26' W 009°07'0 0.0
2017-Sep-25 17:58N 38°26' W 009°07'0 0.0
2017-Sep-25 17:28N 38°26' W 009°07'0 0.0
2017-Sep-25 16:55N 38°26' W 009°07'0 0.0
2017-Sep-25 16:16N 38°26' W 009°07'0 0.0
2017-Sep-25 15:55N 38°26' W 009°07'0 0.0
2017-Sep-25 15:28N 38°26' W 009°07'0 0.1
2017-Sep-25 14:53N 38°26' W 009°07'1 1.8
2017-Sep-25 14:29N 38°25' W 009°07'2 4.0
2017-Sep-25 13:58N 38°24' W 009°09'2 5.0
2017-Sep-25 13:30N 38°23' W 009°12'2 4.4
2017-Sep-25 13:00N 38°24' W 009°15'3 5.8
2017-Sep-25 12:28N 38°27' W 009°16'3 6.8
2017-Sep-25 11:59N 38°30' W 009°18'3 6.6
2017-Sep-25 11:30N 38°33' W 009°20'3 6.8
2017-Sep-25 11:00N 38°36' W 009°22'2 3.9
2017-Sep-25 10:30N 38°38' W 009°23'2 4.3
2017-Sep-25 10:00N 38°40' W 009°24'2 3.3
2017-Sep-25 09:26N 38°42' W 009°25'0 0.0
2017-Sep-24 19:24N 38°41' W 009°25'0 0.0
2017-Sep-24 19:00N 38°41' W 009°25'  

Dump ship's entire track history